sensor_id;sensor_type;location;lat;lon;timestamp;P1;durP1;ratioP1;P2;durP2;ratioP2
10250;SDS011;5170;58.692;12.478;2023-05-21T00:02:11;2.57;;;1.50;;
10250;SDS011;5170;58.692;12.478;2023-05-21T00:04:59;3.97;;;1.33;;
10250;SDS011;5170;58.692;12.478;2023-05-21T00:07:47;2.50;;;1.50;;
10250;SDS011;5170;58.692;12.478;2023-05-21T00:10:39;2.53;;;1.53;;
10250;SDS011;5170;58.692;12.478;2023-05-21T00:13:26;4.20;;;2.00;;
10250;SDS011;5170;58.692;12.478;2023-05-21T00:16:14;2.67;;;1.83;;
10250;SDS011;5170;58.692;12.478;2023-05-21T00:19:02;2.40;;;1.60;;
10250;SDS011;5170;58.692;12.478;2023-05-21T00:21:49;4.23;;;1.47;;
10250;SDS011;5170;58.692;12.478;2023-05-21T00:24:37;2.33;;;1.43;;
10250;SDS011;5170;58.692;12.478;2023-05-21T00:27:26;1.63;;;1.40;;
10250;SDS011;5170;58.692;12.478;2023-05-21T00:30:14;2.40;;;1.67;;
10250;SDS011;5170;58.692;12.478;2023-05-21T00:33:01;2.13;;;1.77;;
10250;SDS011;5170;58.692;12.478;2023-05-21T00:35:49;1.93;;;1.10;;
10250;SDS011;5170;58.692;12.478;2023-05-21T00:38:37;2.30;;;1.63;;
10250;SDS011;5170;58.692;12.478;2023-05-21T00:41:24;2.27;;;1.47;;
10250;SDS011;5170;58.692;12.478;2023-05-21T00:44:15;1.97;;;1.50;;
10250;SDS011;5170;58.692;12.478;2023-05-21T00:47:04;2.47;;;1.80;;
10250;SDS011;5170;58.692;12.478;2023-05-21T00:49:52;1.70;;;1.60;;
10250;SDS011;5170;58.692;12.478;2023-05-21T00:52:41;5.10;;;1.90;;
10250;SDS011;5170;58.692;12.478;2023-05-21T00:55:30;2.27;;;1.70;;
10250;SDS011;5170;58.692;12.478;2023-05-21T00:58:17;1.77;;;1.50;;
10250;SDS011;5170;58.692;12.478;2023-05-21T01:01:06;3.10;;;2.03;;
10250;SDS011;5170;58.692;12.478;2023-05-21T01:03:58;3.37;;;2.00;;
10250;SDS011;5170;58.692;12.478;2023-05-21T01:06:47;2.43;;;2.17;;
10250;SDS011;5170;58.692;12.478;2023-05-21T01:09:34;2.63;;;1.50;;
10250;SDS011;5170;58.692;12.478;2023-05-21T01:12:22;2.77;;;1.70;;
10250;SDS011;5170;58.692;12.478;2023-05-21T01:15:10;2.67;;;1.67;;
10250;SDS011;5170;58.692;12.478;2023-05-21T01:18:00;2.37;;;1.80;;
10250;SDS011;5170;58.692;12.478;2023-05-21T01:20:47;2.43;;;1.80;;
10250;SDS011;5170;58.692;12.478;2023-05-21T01:23:36;3.00;;;1.60;;
10250;SDS011;5170;58.692;12.478;2023-05-21T01:26:24;2.20;;;1.47;;
10250;SDS011;5170;58.692;12.478;2023-05-21T01:29:13;1.87;;;1.47;;
10250;SDS011;5170;58.692;12.478;2023-05-21T01:32:02;2.80;;;1.80;;
10250;SDS011;5170;58.692;12.478;2023-05-21T01:34:52;2.83;;;1.93;;
10250;SDS011;5170;58.692;12.478;2023-05-21T01:37:43;3.50;;;2.07;;
10250;SDS011;5170;58.692;12.478;2023-05-21T01:40:34;4.70;;;1.97;;
10250;SDS011;5170;58.692;12.478;2023-05-21T01:43:22;2.13;;;1.83;;
10250;SDS011;5170;58.692;12.478;2023-05-21T01:46:12;2.53;;;1.80;;
10250;SDS011;5170;58.692;12.478;2023-05-21T01:49:00;1.93;;;1.33;;
10250;SDS011;5170;58.692;12.478;2023-05-21T01:51:48;2.90;;;1.67;;
10250;SDS011;5170;58.692;12.478;2023-05-21T01:54:36;3.93;;;2.10;;
10250;SDS011;5170;58.692;12.478;2023-05-21T01:57:25;3.23;;;1.63;;
10250;SDS011;5170;58.692;12.478;2023-05-21T02:00:13;2.23;;;1.70;;
10250;SDS011;5170;58.692;12.478;2023-05-21T02:03:01;1.87;;;1.67;;
10250;SDS011;5170;58.692;12.478;2023-05-21T02:05:48;2.90;;;1.63;;
10250;SDS011;5170;58.692;12.478;2023-05-21T02:08:36;1.80;;;1.20;;
10250;SDS011;5170;58.692;12.478;2023-05-21T02:11:25;3.77;;;2.20;;
10250;SDS011;5170;58.692;12.478;2023-05-21T02:14:14;2.73;;;2.00;;
10250;SDS011;5170;58.692;12.478;2023-05-21T02:17:01;4.33;;;2.73;;
10250;SDS011;5170;58.692;12.478;2023-05-21T02:19:49;4.63;;;1.63;;
10250;SDS011;5170;58.692;12.478;2023-05-21T02:22:37;2.97;;;2.30;;
10250;SDS011;5170;58.692;12.478;2023-05-21T02:25:24;3.33;;;1.67;;
10250;SDS011;5170;58.692;12.478;2023-05-21T02:28:12;2.80;;;1.90;;
10250;SDS011;5170;58.692;12.478;2023-05-21T02:31:01;3.80;;;2.00;;
10250;SDS011;5170;58.692;12.478;2023-05-21T02:33:49;3.13;;;1.70;;
10250;SDS011;5170;58.692;12.478;2023-05-21T02:36:37;3.07;;;1.57;;
10250;SDS011;5170;58.692;12.478;2023-05-21T02:39:26;2.50;;;1.50;;
10250;SDS011;5170;58.692;12.478;2023-05-21T02:42:13;2.83;;;1.67;;
10250;SDS011;5170;58.692;12.478;2023-05-21T02:45:01;2.33;;;1.47;;
10250;SDS011;5170;58.692;12.478;2023-05-21T02:47:50;2.43;;;1.60;;
10250;SDS011;5170;58.692;12.478;2023-05-21T02:50:38;3.17;;;1.77;;
10250;SDS011;5170;58.692;12.478;2023-05-21T02:53:25;1.73;;;1.37;;
10250;SDS011;5170;58.692;12.478;2023-05-21T02:56:13;2.87;;;1.80;;
10250;SDS011;5170;58.692;12.478;2023-05-21T02:59:00;2.40;;;1.37;;
10250;SDS011;5170;58.692;12.478;2023-05-21T03:01:48;2.10;;;1.60;;
10250;SDS011;5170;58.692;12.478;2023-05-21T03:04:37;1.73;;;1.40;;
10250;SDS011;5170;58.692;12.478;2023-05-21T03:07:30;2.90;;;2.07;;
10250;SDS011;5170;58.692;12.478;2023-05-21T03:10:18;1.73;;;1.40;;
10250;SDS011;5170;58.692;12.478;2023-05-21T03:13:05;4.47;;;1.70;;
10250;SDS011;5170;58.692;12.478;2023-05-21T03:15:53;2.97;;;1.30;;
10250;SDS011;5170;58.692;12.478;2023-05-21T03:18:41;1.90;;;1.20;;
10250;SDS011;5170;58.692;12.478;2023-05-21T03:21:31;1.43;;;1.23;;
10250;SDS011;5170;58.692;12.478;2023-05-21T03:24:18;2.00;;;1.30;;
10250;SDS011;5170;58.692;12.478;2023-05-21T03:27:06;3.13;;;1.43;;
10250;SDS011;5170;58.692;12.478;2023-05-21T03:29:54;3.23;;;1.80;;
10250;SDS011;5170;58.692;12.478;2023-05-21T03:32:42;2.70;;;1.47;;
10250;SDS011;5170;58.692;12.478;2023-05-21T03:35:29;1.63;;;1.00;;
10250;SDS011;5170;58.692;12.478;2023-05-21T03:38:18;2.10;;;1.50;;
10250;SDS011;5170;58.692;12.478;2023-05-21T03:41:06;1.70;;;1.43;;
10250;SDS011;5170;58.692;12.478;2023-05-21T03:43:54;2.50;;;1.53;;
10250;SDS011;5170;58.692;12.478;2023-05-21T03:46:42;2.10;;;1.20;;
10250;SDS011;5170;58.692;12.478;2023-05-21T03:49:30;3.50;;;1.93;;
10250;SDS011;5170;58.692;12.478;2023-05-21T03:52:18;4.13;;;1.43;;
10250;SDS011;5170;58.692;12.478;2023-05-21T03:55:07;3.20;;;1.47;;
10250;SDS011;5170;58.692;12.478;2023-05-21T03:57:55;1.93;;;1.70;;
10250;SDS011;5170;58.692;12.478;2023-05-21T04:00:43;1.87;;;1.43;;
10250;SDS011;5170;58.692;12.478;2023-05-21T04:03:30;2.13;;;1.50;;
10250;SDS011;5170;58.692;12.478;2023-05-21T04:06:19;3.10;;;2.00;;
10250;SDS011;5170;58.692;12.478;2023-05-21T04:09:07;2.03;;;1.60;;
10250;SDS011;5170;58.692;12.478;2023-05-21T04:11:56;2.27;;;1.50;;
10250;SDS011;5170;58.692;12.478;2023-05-21T04:14:44;2.13;;;1.60;;
10250;SDS011;5170;58.692;12.478;2023-05-21T04:17:31;2.80;;;1.33;;
10250;SDS011;5170;58.692;12.478;2023-05-21T04:20:20;2.53;;;1.70;;
10250;SDS011;5170;58.692;12.478;2023-05-21T04:23:08;2.10;;;1.50;;
10250;SDS011;5170;58.692;12.478;2023-05-21T04:25:56;2.13;;;1.63;;
10250;SDS011;5170;58.692;12.478;2023-05-21T04:28:45;2.30;;;1.53;;
10250;SDS011;5170;58.692;12.478;2023-05-21T04:31:32;2.50;;;1.97;;
10250;SDS011;5170;58.692;12.478;2023-05-21T04:34:20;1.90;;;1.30;;
10250;SDS011;5170;58.692;12.478;2023-05-21T04:37:08;2.80;;;2.10;;
10250;SDS011;5170;58.692;12.478;2023-05-21T04:39:56;2.47;;;1.57;;
10250;SDS011;5170;58.692;12.478;2023-05-21T04:42:45;2.20;;;1.40;;
10250;SDS011;5170;58.692;12.478;2023-05-21T04:45:36;3.20;;;1.70;;
10250;SDS011;5170;58.692;12.478;2023-05-21T04:48:24;1.40;;;1.30;;
10250;SDS011;5170;58.692;12.478;2023-05-21T04:51:13;2.00;;;1.20;;
10250;SDS011;5170;58.692;12.478;2023-05-21T04:54:00;2.93;;;1.33;;
10250;SDS011;5170;58.692;12.478;2023-05-21T04:56:48;2.00;;;1.80;;
10250;SDS011;5170;58.692;12.478;2023-05-21T04:59:36;3.07;;;2.83;;
10250;SDS011;5170;58.692;12.478;2023-05-21T05:02:25;2.13;;;1.40;;
10250;SDS011;5170;58.692;12.478;2023-05-21T05:05:12;2.00;;;1.30;;
10250;SDS011;5170;58.692;12.478;2023-05-21T05:08:00;4.13;;;1.67;;
10250;SDS011;5170;58.692;12.478;2023-05-21T05:10:48;3.70;;;2.03;;
10250;SDS011;5170;58.692;12.478;2023-05-21T05:13:36;2.87;;;1.47;;
10250;SDS011;5170;58.692;12.478;2023-05-21T05:16:23;1.73;;;1.60;;
10250;SDS011;5170;58.692;12.478;2023-05-21T05:19:13;2.90;;;1.60;;
10250;SDS011;5170;58.692;12.478;2023-05-21T05:22:01;2.30;;;1.70;;
10250;SDS011;5170;58.692;12.478;2023-05-21T05:24:48;3.43;;;2.07;;
10250;SDS011;5170;58.692;12.478;2023-05-21T05:27:36;1.40;;;1.23;;
10250;SDS011;5170;58.692;12.478;2023-05-21T05:30:24;2.17;;;1.57;;
10250;SDS011;5170;58.692;12.478;2023-05-21T05:33:11;1.50;;;1.23;;
10250;SDS011;5170;58.692;12.478;2023-05-21T05:36:00;1.83;;;1.30;;
10250;SDS011;5170;58.692;12.478;2023-05-21T05:38:48;1.93;;;1.47;;
10250;SDS011;5170;58.692;12.478;2023-05-21T05:41:36;1.50;;;1.30;;
10250;SDS011;5170;58.692;12.478;2023-05-21T05:44:23;2.27;;;1.60;;
10250;SDS011;5170;58.692;12.478;2023-05-21T05:47:11;2.37;;;1.80;;
10250;SDS011;5170;58.692;12.478;2023-05-21T05:49:58;2.20;;;1.43;;
10250;SDS011;5170;58.692;12.478;2023-05-21T05:52:47;1.97;;;1.40;;
10250;SDS011;5170;58.692;12.478;2023-05-21T05:55:35;2.47;;;1.50;;
10250;SDS011;5170;58.692;12.478;2023-05-21T05:58:23;3.40;;;1.90;;
10250;SDS011;5170;58.692;12.478;2023-05-21T06:01:10;2.10;;;1.80;;
10250;SDS011;5170;58.692;12.478;2023-05-21T06:03:58;1.43;;;1.33;;
10250;SDS011;5170;58.692;12.478;2023-05-21T06:06:46;2.90;;;2.00;;
10250;SDS011;5170;58.692;12.478;2023-05-21T06:09:35;5.23;;;1.50;;
10250;SDS011;5170;58.692;12.478;2023-05-21T06:12:24;3.30;;;1.90;;
10250;SDS011;5170;58.692;12.478;2023-05-21T06:15:12;2.27;;;1.60;;
10250;SDS011;5170;58.692;12.478;2023-05-21T06:18:01;1.27;;;1.17;;
10250;SDS011;5170;58.692;12.478;2023-05-21T06:20:48;3.57;;;1.90;;
10250;SDS011;5170;58.692;12.478;2023-05-21T06:23:36;2.73;;;2.00;;
10250;SDS011;5170;58.692;12.478;2023-05-21T06:26:25;2.43;;;1.67;;
10250;SDS011;5170;58.692;12.478;2023-05-21T06:29:12;2.70;;;2.27;;
10250;SDS011;5170;58.692;12.478;2023-05-21T06:32:01;1.77;;;1.53;;
10250;SDS011;5170;58.692;12.478;2023-05-21T06:34:49;2.53;;;1.70;;
10250;SDS011;5170;58.692;12.478;2023-05-21T06:37:37;3.13;;;1.93;;
10250;SDS011;5170;58.692;12.478;2023-05-21T06:40:24;2.80;;;1.90;;
10250;SDS011;5170;58.692;12.478;2023-05-21T06:43:13;2.73;;;1.90;;
10250;SDS011;5170;58.692;12.478;2023-05-21T06:46:01;5.23;;;2.27;;
10250;SDS011;5170;58.692;12.478;2023-05-21T06:48:48;3.37;;;1.97;;
10250;SDS011;5170;58.692;12.478;2023-05-21T06:51:36;3.50;;;1.83;;
10250;SDS011;5170;58.692;12.478;2023-05-21T06:54:24;2.40;;;2.20;;
10250;SDS011;5170;58.692;12.478;2023-05-21T06:57:12;3.73;;;1.97;;
10250;SDS011;5170;58.692;12.478;2023-05-21T07:00:01;3.40;;;2.30;;
10250;SDS011;5170;58.692;12.478;2023-05-21T07:02:49;4.23;;;1.97;;
10250;SDS011;5170;58.692;12.478;2023-05-21T07:05:37;3.63;;;2.20;;
10250;SDS011;5170;58.692;12.478;2023-05-21T07:08:24;2.23;;;1.87;;
10250;SDS011;5170;58.692;12.478;2023-05-21T07:11:12;4.10;;;2.33;;
10250;SDS011;5170;58.692;12.478;2023-05-21T07:14:00;4.53;;;2.20;;
10250;SDS011;5170;58.692;12.478;2023-05-21T07:16:49;2.70;;;2.23;;
10250;SDS011;5170;58.692;12.478;2023-05-21T07:19:37;5.10;;;2.10;;
10250;SDS011;5170;58.692;12.478;2023-05-21T07:22:24;4.70;;;2.27;;
10250;SDS011;5170;58.692;12.478;2023-05-21T07:25:12;2.13;;;1.87;;
10250;SDS011;5170;58.692;12.478;2023-05-21T07:28:00;3.47;;;1.52;;
10250;SDS011;5170;58.692;12.478;2023-05-21T07:30:47;2.38;;;1.80;;
10250;SDS011;5170;58.692;12.478;2023-05-21T07:33:36;2.05;;;1.55;;
10250;SDS011;5170;58.692;12.478;2023-05-21T07:36:24;5.07;;;2.03;;
10250;SDS011;5170;58.692;12.478;2023-05-21T07:39:12;2.65;;;1.40;;
10250;SDS011;5170;58.692;12.478;2023-05-21T07:42:00;5.13;;;2.20;;
10250;SDS011;5170;58.692;12.478;2023-05-21T07:44:47;3.47;;;2.20;;
10250;SDS011;5170;58.692;12.478;2023-05-21T07:47:35;3.25;;;1.77;;
10250;SDS011;5170;58.692;12.478;2023-05-21T07:50:24;2.00;;;1.48;;
10250;SDS011;5170;58.692;12.478;2023-05-21T07:53:12;2.90;;;1.90;;
10250;SDS011;5170;58.692;12.478;2023-05-21T07:56:00;1.98;;;1.60;;
10250;SDS011;5170;58.692;12.478;2023-05-21T07:58:47;7.60;;;2.33;;
10250;SDS011;5170;58.692;12.478;2023-05-21T08:01:35;1.70;;;1.48;;
10250;SDS011;5170;58.692;12.478;2023-05-21T08:04:22;2.83;;;1.77;;
10250;SDS011;5170;58.692;12.478;2023-05-21T08:07:12;4.83;;;1.67;;
10250;SDS011;5170;58.692;12.478;2023-05-21T08:10:01;1.83;;;1.30;;
10250;SDS011;5170;58.692;12.478;2023-05-21T08:12:49;2.00;;;1.40;;
10250;SDS011;5170;58.692;12.478;2023-05-21T08:15:36;3.33;;;1.60;;
10250;SDS011;5170;58.692;12.478;2023-05-21T08:18:24;2.77;;;1.83;;
10250;SDS011;5170;58.692;12.478;2023-05-21T08:21:12;2.33;;;1.60;;
10250;SDS011;5170;58.692;12.478;2023-05-21T08:24:01;2.53;;;2.10;;
10250;SDS011;5170;58.692;12.478;2023-05-21T08:26:48;2.97;;;1.43;;
10250;SDS011;5170;58.692;12.478;2023-05-21T08:29:36;1.83;;;1.57;;
10250;SDS011;5170;58.692;12.478;2023-05-21T08:32:24;1.90;;;1.73;;
10250;SDS011;5170;58.692;12.478;2023-05-21T08:35:11;2.40;;;1.47;;
10250;SDS011;5170;58.692;12.478;2023-05-21T08:37:59;2.20;;;1.47;;
10250;SDS011;5170;58.692;12.478;2023-05-21T08:40:48;2.60;;;1.60;;
10250;SDS011;5170;58.692;12.478;2023-05-21T08:43:37;2.20;;;1.97;;
10250;SDS011;5170;58.692;12.478;2023-05-21T08:46:25;3.93;;;1.83;;
10250;SDS011;5170;58.692;12.478;2023-05-21T08:49:15;1.40;;;1.30;;
10250;SDS011;5170;58.692;12.478;2023-05-21T08:52:03;5.33;;;2.03;;
10250;SDS011;5170;58.692;12.478;2023-05-21T08:54:52;2.40;;;1.70;;
10250;SDS011;5170;58.692;12.478;2023-05-21T08:57:42;2.13;;;1.60;;
10250;SDS011;5170;58.692;12.478;2023-05-21T09:00:30;3.80;;;1.97;;
10250;SDS011;5170;58.692;12.478;2023-05-21T09:03:18;2.03;;;1.47;;
10250;SDS011;5170;58.692;12.478;2023-05-21T09:06:06;1.93;;;1.47;;
10250;SDS011;5170;58.692;12.478;2023-05-21T09:08:59;1.80;;;1.50;;
10250;SDS011;5170;58.692;12.478;2023-05-21T09:11:49;2.00;;;1.53;;
10250;SDS011;5170;58.692;12.478;2023-05-21T09:14:38;3.80;;;1.83;;
10250;SDS011;5170;58.692;12.478;2023-05-21T09:17:26;4.57;;;1.40;;
10250;SDS011;5170;58.692;12.478;2023-05-21T09:20:14;2.30;;;1.70;;
10250;SDS011;5170;58.692;12.478;2023-05-21T09:23:02;2.93;;;1.50;;
10250;SDS011;5170;58.692;12.478;2023-05-21T09:25:51;4.73;;;1.73;;
10250;SDS011;5170;58.692;12.478;2023-05-21T09:28:38;7.37;;;1.53;;
10250;SDS011;5170;58.692;12.478;2023-05-21T09:31:27;1.43;;;1.30;;
10250;SDS011;5170;58.692;12.478;2023-05-21T09:34:17;4.30;;;1.67;;
10250;SDS011;5170;58.692;12.478;2023-05-21T09:37:05;2.53;;;1.60;;
10250;SDS011;5170;58.692;12.478;2023-05-21T09:39:53;2.00;;;1.50;;
10250;SDS011;5170;58.692;12.478;2023-05-21T09:42:42;2.37;;;1.50;;
10250;SDS011;5170;58.692;12.478;2023-05-21T09:45:30;2.27;;;1.60;;
10250;SDS011;5170;58.692;12.478;2023-05-21T09:48:32;2.23;;;1.40;;
10250;SDS011;5170;58.692;12.478;2023-05-21T09:51:20;3.95;;;1.70;;
10250;SDS011;5170;58.692;12.478;2023-05-21T09:54:09;7.20;;;2.27;;
10250;SDS011;5170;58.692;12.478;2023-05-21T09:56:57;2.92;;;1.83;;
10250;SDS011;5170;58.692;12.478;2023-05-21T09:59:48;2.90;;;1.67;;
10250;SDS011;5170;58.692;12.478;2023-05-21T10:02:36;2.03;;;1.70;;
10250;SDS011;5170;58.692;12.478;2023-05-21T10:05:27;5.40;;;1.60;;
10250;SDS011;5170;58.692;12.478;2023-05-21T10:08:15;2.88;;;1.70;;
10250;SDS011;5170;58.692;12.478;2023-05-21T10:11:04;6.22;;;1.42;;
10250;SDS011;5170;58.692;12.478;2023-05-21T10:13:54;2.95;;;1.77;;
10250;SDS011;5170;58.692;12.478;2023-05-21T10:16:43;2.67;;;1.75;;
10250;SDS011;5170;58.692;12.478;2023-05-21T10:19:31;2.75;;;1.90;;
10250;SDS011;5170;58.692;12.478;2023-05-21T10:22:22;1.80;;;1.50;;
10250;SDS011;5170;58.692;12.478;2023-05-21T10:25:11;1.77;;;1.60;;
10250;SDS011;5170;58.692;12.478;2023-05-21T10:28:00;1.77;;;1.50;;
10250;SDS011;5170;58.692;12.478;2023-05-21T10:30:47;2.08;;;1.70;;
10250;SDS011;5170;58.692;12.478;2023-05-21T10:33:35;2.63;;;1.70;;
10250;SDS011;5170;58.692;12.478;2023-05-21T10:36:23;1.73;;;1.48;;
10250;SDS011;5170;58.692;12.478;2023-05-21T10:39:13;2.88;;;1.70;;
10250;SDS011;5170;58.692;12.478;2023-05-21T10:42:04;2.63;;;1.48;;
10250;SDS011;5170;58.692;12.478;2023-05-21T10:45:04;3.42;;;1.65;;
10250;SDS011;5170;58.692;12.478;2023-05-21T10:51:09;2.45;;;1.40;;
10250;SDS011;5170;58.692;12.478;2023-05-21T10:54:06;1.42;;;1.27;;
10250;SDS011;5170;58.692;12.478;2023-05-21T10:56:59;2.00;;;1.30;;
10250;SDS011;5170;58.692;12.478;2023-05-21T10:59:51;2.53;;;1.70;;
10250;SDS011;5170;58.692;12.478;2023-05-21T11:02:38;3.40;;;1.70;;
10250;SDS011;5170;58.692;12.478;2023-05-21T11:05:38;4.00;;;1.50;;
10250;SDS011;5170;58.692;12.478;2023-05-21T11:08:27;1.58;;;1.20;;
10250;SDS011;5170;58.692;12.478;2023-05-21T11:11:24;1.83;;;1.40;;
10250;SDS011;5170;58.692;12.478;2023-05-21T11:14:32;2.63;;;1.30;;
10250;SDS011;5170;58.692;12.478;2023-05-21T11:17:36;3.63;;;1.40;;
10250;SDS011;5170;58.692;12.478;2023-05-21T11:20:26;2.13;;;1.27;;
10250;SDS011;5170;58.692;12.478;2023-05-21T11:23:20;0.95;;;0.90;;
10250;SDS011;5170;58.692;12.478;2023-05-21T11:26:07;1.70;;;1.13;;
10250;SDS011;5170;58.692;12.478;2023-05-21T11:29:05;1.58;;;1.10;;
10250;SDS011;5170;58.692;12.478;2023-05-21T11:31:59;5.00;;;1.02;;
10250;SDS011;5170;58.692;12.478;2023-05-21T11:34:47;1.52;;;1.10;;
10250;SDS011;5170;58.692;12.478;2023-05-21T11:37:35;1.67;;;1.27;;
10250;SDS011;5170;58.692;12.478;2023-05-21T11:40:25;2.78;;;1.15;;
10250;SDS011;5170;58.692;12.478;2023-05-21T11:43:14;3.67;;;1.30;;
10250;SDS011;5170;58.692;12.478;2023-05-21T11:46:02;2.00;;;1.35;;
10250;SDS011;5170;58.692;12.478;2023-05-21T11:48:52;2.13;;;1.38;;
10250;SDS011;5170;58.692;12.478;2023-05-21T11:51:41;1.30;;;1.20;;
10250;SDS011;5170;58.692;12.478;2023-05-21T11:54:29;1.60;;;1.05;;
10250;SDS011;5170;58.692;12.478;2023-05-21T11:57:18;1.60;;;1.30;;
10250;SDS011;5170;58.692;12.478;2023-05-21T12:00:11;3.72;;;1.40;;
10250;SDS011;5170;58.692;12.478;2023-05-21T12:02:59;1.10;;;1.00;;
10250;SDS011;5170;58.692;12.478;2023-05-21T12:05:48;1.73;;;1.20;;
10250;SDS011;5170;58.692;12.478;2023-05-21T12:08:36;1.55;;;1.13;;
10250;SDS011;5170;58.692;12.478;2023-05-21T12:11:24;8.55;;;1.35;;
10250;SDS011;5170;58.692;12.478;2023-05-21T12:14:12;1.63;;;1.17;;
10250;SDS011;5170;58.692;12.478;2023-05-21T12:17:01;3.28;;;2.15;;
10250;SDS011;5170;58.692;12.478;2023-05-21T12:19:49;1.65;;;1.05;;
10250;SDS011;5170;58.692;12.478;2023-05-21T12:22:40;1.30;;;1.13;;
10250;SDS011;5170;58.692;12.478;2023-05-21T12:25:28;2.30;;;1.13;;
10250;SDS011;5170;58.692;12.478;2023-05-21T12:28:16;3.38;;;0.95;;
10250;SDS011;5170;58.692;12.478;2023-05-21T12:31:04;1.50;;;1.15;;
10250;SDS011;5170;58.692;12.478;2023-05-21T12:33:52;1.75;;;0.98;;
10250;SDS011;5170;58.692;12.478;2023-05-21T12:36:41;2.22;;;1.23;;
10250;SDS011;5170;58.692;12.478;2023-05-21T12:39:35;2.50;;;1.35;;
10250;SDS011;5170;58.692;12.478;2023-05-21T12:42:24;3.03;;;1.52;;
10250;SDS011;5170;58.692;12.478;2023-05-21T12:45:12;1.42;;;1.25;;
10250;SDS011;5170;58.692;12.478;2023-05-21T12:48:02;3.08;;;1.05;;
10250;SDS011;5170;58.692;12.478;2023-05-21T12:50:50;2.97;;;1.30;;
10250;SDS011;5170;58.692;12.478;2023-05-21T12:53:40;2.30;;;1.27;;
10250;SDS011;5170;58.692;12.478;2023-05-21T12:56:29;3.20;;;1.27;;
10250;SDS011;5170;58.692;12.478;2023-05-21T12:59:38;1.40;;;1.20;;
10250;SDS011;5170;58.692;12.478;2023-05-21T13:02:25;2.55;;;1.35;;
10250;SDS011;5170;58.692;12.478;2023-05-21T13:05:14;0.82;;;0.80;;
10250;SDS011;5170;58.692;12.478;2023-05-21T13:08:02;1.65;;;1.10;;
10250;SDS011;5170;58.692;12.478;2023-05-21T13:10:50;1.48;;;1.20;;
10250;SDS011;5170;58.692;12.478;2023-05-21T13:13:39;1.63;;;0.90;;
10250;SDS011;5170;58.692;12.478;2023-05-21T13:16:27;8.05;;;1.67;;
10250;SDS011;5170;58.692;12.478;2023-05-21T13:19:14;2.22;;;1.25;;
10250;SDS011;5170;58.692;12.478;2023-05-21T13:22:02;1.55;;;1.08;;
10250;SDS011;5170;58.692;12.478;2023-05-21T13:24:51;2.58;;;1.00;;
10250;SDS011;5170;58.692;12.478;2023-05-21T13:27:39;1.50;;;1.10;;
10250;SDS011;5170;58.692;12.478;2023-05-21T13:30:28;3.63;;;1.25;;
10250;SDS011;5170;58.692;12.478;2023-05-21T13:33:17;1.63;;;1.10;;
10250;SDS011;5170;58.692;12.478;2023-05-21T13:36:06;3.20;;;1.20;;
10250;SDS011;5170;58.692;12.478;2023-05-21T13:38:53;4.47;;;1.30;;
10250;SDS011;5170;58.692;12.478;2023-05-21T13:41:41;2.17;;;1.58;;
10250;SDS011;5170;58.692;12.478;2023-05-21T13:44:29;2.15;;;1.25;;
10250;SDS011;5170;58.692;12.478;2023-05-21T13:47:21;1.77;;;1.20;;
10250;SDS011;5170;58.692;12.478;2023-05-21T13:50:10;1.83;;;1.17;;
10250;SDS011;5170;58.692;12.478;2023-05-21T13:52:58;9.98;;;1.27;;
10250;SDS011;5170;58.692;12.478;2023-05-21T13:55:45;1.40;;;1.25;;
10250;SDS011;5170;58.692;12.478;2023-05-21T13:58:33;1.83;;;1.17;;
10250;SDS011;5170;58.692;12.478;2023-05-21T14:01:20;1.50;;;1.20;;
10250;SDS011;5170;58.692;12.478;2023-05-21T14:04:09;1.88;;;1.00;;
10250;SDS011;5170;58.692;12.478;2023-05-21T14:06:57;1.45;;;1.00;;
10250;SDS011;5170;58.692;12.478;2023-05-21T14:09:45;1.92;;;1.63;;
10250;SDS011;5170;58.692;12.478;2023-05-21T14:12:33;2.17;;;1.70;;
10250;SDS011;5170;58.692;12.478;2023-05-21T14:15:21;1.58;;;1.33;;
10250;SDS011;5170;58.692;12.478;2023-05-21T14:18:08;1.25;;;1.05;;
10250;SDS011;5170;58.692;12.478;2023-05-21T14:20:58;3.15;;;1.33;;
10250;SDS011;5170;58.692;12.478;2023-05-21T14:23:46;3.38;;;1.23;;
10250;SDS011;5170;58.692;12.478;2023-05-21T14:26:35;2.25;;;1.40;;
10250;SDS011;5170;58.692;12.478;2023-05-21T14:29:23;1.42;;;1.02;;
10250;SDS011;5170;58.692;12.478;2023-05-21T14:32:11;1.15;;;0.95;;
10250;SDS011;5170;58.692;12.478;2023-05-21T14:34:59;1.52;;;1.13;;
10250;SDS011;5170;58.692;12.478;2023-05-21T14:37:48;5.40;;;1.35;;
10250;SDS011;5170;58.692;12.478;2023-05-21T14:40:35;1.10;;;1.00;;
10250;SDS011;5170;58.692;12.478;2023-05-21T14:43:23;2.42;;;1.10;;
10250;SDS011;5170;58.692;12.478;2023-05-21T14:46:11;1.80;;;1.20;;
10250;SDS011;5170;58.692;12.478;2023-05-21T14:48:58;0.98;;;0.88;;
10250;SDS011;5170;58.692;12.478;2023-05-21T14:51:47;1.27;;;1.00;;
10250;SDS011;5170;58.692;12.478;2023-05-21T14:54:37;1.08;;;0.90;;
10250;SDS011;5170;58.692;12.478;2023-05-21T14:57:24;1.90;;;1.10;;
10250;SDS011;5170;58.692;12.478;2023-05-21T15:00:12;2.25;;;1.10;;
10250;SDS011;5170;58.692;12.478;2023-05-21T15:03:00;4.40;;;1.35;;
10250;SDS011;5170;58.692;12.478;2023-05-21T15:05:48;1.08;;;0.90;;
10250;SDS011;5170;58.692;12.478;2023-05-21T15:08:36;2.17;;;0.85;;
10250;SDS011;5170;58.692;12.478;2023-05-21T15:11:25;2.05;;;1.15;;
10250;SDS011;5170;58.692;12.478;2023-05-21T15:14:13;1.65;;;0.93;;
10250;SDS011;5170;58.692;12.478;2023-05-21T15:17:01;3.50;;;0.90;;
10250;SDS011;5170;58.692;12.478;2023-05-21T15:19:48;1.70;;;0.85;;
10250;SDS011;5170;58.692;12.478;2023-05-21T15:22:36;0.88;;;0.75;;
10250;SDS011;5170;58.692;12.478;2023-05-21T15:25:24;0.93;;;0.70;;
10250;SDS011;5170;58.692;12.478;2023-05-21T15:28:13;1.23;;;0.95;;
10250;SDS011;5170;58.692;12.478;2023-05-21T15:31:00;1.17;;;0.80;;
10250;SDS011;5170;58.692;12.478;2023-05-21T15:33:48;1.20;;;1.05;;
10250;SDS011;5170;58.692;12.478;2023-05-21T15:36:36;1.15;;;0.75;;
10250;SDS011;5170;58.692;12.478;2023-05-21T15:39:23;1.13;;;0.95;;
10250;SDS011;5170;58.692;12.478;2023-05-21T15:42:11;1.63;;;1.10;;
10250;SDS011;5170;58.692;12.478;2023-05-21T15:45:00;5.70;;;1.20;;
10250;SDS011;5170;58.692;12.478;2023-05-21T15:47:48;1.23;;;0.80;;
10250;SDS011;5170;58.692;12.478;2023-05-21T15:50:35;2.03;;;0.75;;
10250;SDS011;5170;58.692;12.478;2023-05-21T15:53:23;1.17;;;0.93;;
10250;SDS011;5170;58.692;12.478;2023-05-21T15:56:11;1.13;;;0.88;;
10250;SDS011;5170;58.692;12.478;2023-05-21T15:58:58;2.13;;;0.90;;
10250;SDS011;5170;58.692;12.478;2023-05-21T16:01:47;2.05;;;1.00;;
10250;SDS011;5170;58.692;12.478;2023-05-21T16:04:35;3.90;;;0.90;;
10250;SDS011;5170;58.692;12.478;2023-05-21T16:07:23;1.33;;;1.23;;
10250;SDS011;5170;58.692;12.478;2023-05-21T16:10:10;1.30;;;0.93;;
10250;SDS011;5170;58.692;12.478;2023-05-21T16:12:58;0.65;;;0.65;;
10250;SDS011;5170;58.692;12.478;2023-05-21T16:15:46;1.90;;;1.00;;
10250;SDS011;5170;58.692;12.478;2023-05-21T16:18:35;3.75;;;0.82;;
10250;SDS011;5170;58.692;12.478;2023-05-21T16:21:23;0.80;;;0.80;;
10250;SDS011;5170;58.692;12.478;2023-05-21T16:24:11;1.13;;;0.70;;
10250;SDS011;5170;58.692;12.478;2023-05-21T16:26:58;1.15;;;0.82;;
10250;SDS011;5170;58.692;12.478;2023-05-21T16:29:46;4.35;;;1.15;;
10250;SDS011;5170;58.692;12.478;2023-05-21T16:32:34;1.38;;;1.00;;
10250;SDS011;5170;58.692;12.478;2023-05-21T16:35:25;2.53;;;1.05;;
10250;SDS011;5170;58.692;12.478;2023-05-21T16:38:13;1.55;;;0.93;;
10250;SDS011;5170;58.692;12.478;2023-05-21T16:41:00;0.80;;;0.70;;
10250;SDS011;5170;58.692;12.478;2023-05-21T16:43:48;1.00;;;0.93;;
10250;SDS011;5170;58.692;12.478;2023-05-21T16:46:36;0.85;;;0.80;;
10250;SDS011;5170;58.692;12.478;2023-05-21T16:49:24;1.10;;;1.00;;
10250;SDS011;5170;58.692;12.478;2023-05-21T16:52:13;1.42;;;0.85;;
10250;SDS011;5170;58.692;12.478;2023-05-21T16:55:01;2.85;;;0.98;;
10250;SDS011;5170;58.692;12.478;2023-05-21T16:57:49;2.63;;;1.17;;
10250;SDS011;5170;58.692;12.478;2023-05-21T17:00:36;2.40;;;1.25;;